Amarillo, Texas
Current Conditions -  °F | °C
As of 6:53 PM on Monday 20 Oct 2014 (Local Time) from KAMA Reporting Station
Clear Clear  
Wind Chill: 21°   Ceiling: Unl
Heat Index: 21°   Visibility: 10mi
Dew Point: 11°   Wind: 7mph
Humidity: 53%   Direction: 70°ENE
Pressure: 30.07"   Gusts: NA
Location:  35.21°N, 101.83°W
Report Text: KAMA 202353Z 07006KT 10SM CLR 21/11 A3007 RMK AO2 SLP148 T02110111 10261 20211 55002
Loading
Personal Weather Stations






























Interactive Weather Map
Tropical Storm Tracking
New forecast layout! Learn more

10-Day Weather Forecast

Advertisements
Track Severe Weather on mobile